sensor_id;sensor_type;location;lat;lon;timestamp;pressure;altitude;pressure_sealevel;temperature;humidity
10476;BME280;26166;48.264;11.436;2022-10-18T00:02:35;97139.13;;;20.32;60.17
10476;BME280;26166;48.264;11.436;2022-10-18T00:05:35;97140.75;;;20.33;60.13
10476;BME280;26166;48.264;11.436;2022-10-18T00:08:36;97138.25;;;20.32;60.29
10476;BME280;26166;48.264;11.436;2022-10-18T00:11:36;97131.28;;;20.31;60.36
10476;BME280;26166;48.264;11.436;2022-10-18T00:14:37;97132.94;;;20.32;60.24
10476;BME280;26166;48.264;11.436;2022-10-18T00:17:37;97129.44;;;20.31;60.26
10476;BME280;26166;48.264;11.436;2022-10-18T00:20:38;97136.63;;;20.31;60.38
10476;BME280;26166;48.264;11.436;2022-10-18T00:23:38;97134.19;;;20.29;60.28
10476;BME280;26166;48.264;11.436;2022-10-18T00:26:38;97145.44;;;20.31;60.31
10476;BME280;26166;48.264;11.436;2022-10-18T00:29:38;97140.13;;;20.31;60.07
10476;BME280;26166;48.264;11.436;2022-10-18T00:32:39;97135.81;;;20.30;60.08
10476;BME280;26166;48.264;11.436;2022-10-18T00:35:39;97128.63;;;20.31;60.18
10476;BME280;26166;48.264;11.436;2022-10-18T00:38:39;97127.81;;;20.30;60.25
10476;BME280;26166;48.264;11.436;2022-10-18T00:41:40;97119.00;;;20.30;60.19
10476;BME280;26166;48.264;11.436;2022-10-18T00:47:40;97118.16;;;20.29;60.21
10476;BME280;26166;48.264;11.436;2022-10-18T00:50:42;97117.34;;;20.29;60.23
10476;BME280;26166;48.264;11.436;2022-10-18T00:53:43;97116.53;;;20.28;60.34
10476;BME280;26166;48.264;11.436;2022-10-18T00:56:43;97115.72;;;20.28;60.12
10476;BME280;26166;48.264;11.436;2022-10-18T00:59:44;97114.88;;;20.27;60.22
10476;BME280;26166;48.264;11.436;2022-10-18T01:02:45;97119.22;;;20.28;60.15
10476;BME280;26166;48.264;11.436;2022-10-18T01:05:46;97118.56;;;20.26;60.07
10476;BME280;26166;48.264;11.436;2022-10-18T01:12:08;97123.09;;;20.26;60.08
10476;BME280;26166;48.264;11.436;2022-10-18T01:15:18;97118.56;;;20.26;60.01
10476;BME280;26166;48.264;11.436;2022-10-18T01:33:37;97129.25;;;20.26;59.98
10476;BME280;26166;48.264;11.436;2022-10-18T01:36:42;97122.28;;;20.25;60.34
10476;BME280;26166;48.264;11.436;2022-10-18T01:39:45;97130.28;;;20.25;60.21
10476;BME280;26166;48.264;11.436;2022-10-18T01:42:46;97129.69;;;20.23;60.05
10476;BME280;26166;48.264;11.436;2022-10-18T01:45:47;97131.31;;;20.24;60.10
10476;BME280;26166;48.264;11.436;2022-10-18T01:48:48;97123.50;;;20.23;60.24
10476;BME280;26166;48.264;11.436;2022-10-18T01:51:48;97113.69;;;20.23;60.26
10476;BME280;26166;48.264;11.436;2022-10-18T01:54:48;97119.00;;;20.23;60.06
10476;BME280;26166;48.264;11.436;2022-10-18T01:58:02;97125.34;;;20.22;60.11
10476;BME280;26166;48.264;11.436;2022-10-18T02:01:08;97124.53;;;20.22;60.26
10476;BME280;26166;48.264;11.436;2022-10-18T02:10:47;97112.00;;;20.22;60.07
10476;BME280;26166;48.264;11.436;2022-10-18T02:13:49;97119.00;;;20.23;60.16
10476;BME280;26166;48.264;11.436;2022-10-18T02:16:52;97111.59;;;20.25;60.22
10476;BME280;26166;48.264;11.436;2022-10-18T02:19:54;97116.72;;;20.27;59.91
10476;BME280;26166;48.264;11.436;2022-10-18T02:22:55;97120.22;;;20.27;60.03
10476;BME280;26166;48.264;11.436;2022-10-18T02:25:56;97121.88;;;20.28;59.89
10476;BME280;26166;48.264;11.436;2022-10-18T02:28:56;97120.03;;;20.29;60.01
10476;BME280;26166;48.264;11.436;2022-10-18T02:35:30;97119.00;;;20.30;59.94
10476;BME280;26166;48.264;11.436;2022-10-18T02:38:32;97119.81;;;20.30;59.98
10476;BME280;26166;48.264;11.436;2022-10-18T02:41:33;97120.63;;;20.31;60.07
10476;BME280;26166;48.264;11.436;2022-10-18T02:44:34;97121.44;;;20.31;59.81
10476;BME280;26166;48.264;11.436;2022-10-18T02:47:34;97117.78;;;20.32;59.73
10476;BME280;26166;48.264;11.436;2022-10-18T02:50:34;97115.09;;;20.32;59.62
10476;BME280;26166;48.264;11.436;2022-10-18T02:53:34;97117.78;;;20.32;59.68
10476;BME280;26166;48.264;11.436;2022-10-18T02:56:35;97132.75;;;20.33;59.58
10476;BME280;26166;48.264;11.436;2022-10-18T02:59:35;97125.56;;;20.34;59.66
10476;BME280;26166;48.264;11.436;2022-10-18T03:02:35;97135.19;;;20.35;59.55
10476;BME280;26166;48.264;11.436;2022-10-18T03:05:35;97131.72;;;20.34;59.57
10476;BME280;26166;48.264;11.436;2022-10-18T03:08:35;97138.69;;;20.35;59.77
10476;BME280;26166;48.264;11.436;2022-10-18T03:11:36;97126.38;;;20.34;59.76
10476;BME280;26166;48.264;11.436;2022-10-18T03:14:36;97122.66;;;20.35;59.81
10476;BME280;26166;48.264;11.436;2022-10-18T03:17:36;97130.69;;;20.35;59.79
10476;BME280;26166;48.264;11.436;2022-10-18T03:20:36;97138.69;;;20.35;59.54
10476;BME280;26166;48.264;11.436;2022-10-18T03:23:36;97131.72;;;20.34;59.55
10476;BME280;26166;48.264;11.436;2022-10-18T03:26:37;97132.34;;;20.36;59.69
10476;BME280;26166;48.264;11.436;2022-10-18T03:29:37;97133.56;;;20.34;59.57
10476;BME280;26166;48.264;11.436;2022-10-18T03:32:37;97137.84;;;20.35;59.60
10476;BME280;26166;48.264;11.436;2022-10-18T03:35:44;97137.84;;;20.35;59.74
10476;BME280;26166;48.264;11.436;2022-10-18T03:39:07;97149.34;;;20.35;59.46
10476;BME280;26166;48.264;11.436;2022-10-18T03:42:34;97144.00;;;20.35;59.61
10476;BME280;26166;48.264;11.436;2022-10-18T03:46:16;97138.69;;;20.35;59.34
10476;BME280;26166;48.264;11.436;2022-10-18T03:49:44;97140.34;;;20.36;59.59
10476;BME280;26166;48.264;11.436;2022-10-18T03:53:23;97149.34;;;20.35;59.52
10476;BME280;26166;48.264;11.436;2022-10-18T03:56:23;97144.00;;;20.35;59.47
10476;BME280;26166;48.264;11.436;2022-10-18T03:59:24;97147.31;;;20.37;59.53
10476;BME280;26166;48.264;11.436;2022-10-18T04:02:24;97144.81;;;20.36;59.51
10476;BME280;26166;48.264;11.436;2022-10-18T04:05:24;97140.34;;;20.36;59.40
10476;BME280;26166;48.264;11.436;2022-10-18T04:08:27;97144.81;;;20.36;59.54
10476;BME280;26166;48.264;11.436;2022-10-18T04:11:27;97135.00;;;20.36;59.29
10476;BME280;26166;48.264;11.436;2022-10-18T04:14:27;97142.16;;;20.36;59.47
10476;BME280;26166;48.264;11.436;2022-10-18T04:17:28;97152.03;;;20.35;59.64
10476;BME280;26166;48.264;11.436;2022-10-18T04:20:29;97149.34;;;20.35;59.46
10476;BME280;26166;48.264;11.436;2022-10-18T04:23:30;97151.19;;;20.35;59.42
10476;BME280;26166;48.264;11.436;2022-10-18T04:26:30;97154.69;;;20.35;59.50
10476;BME280;26166;48.264;11.436;2022-10-18T04:29:30;97137.03;;;20.34;59.31
10476;BME280;26166;48.264;11.436;2022-10-18T04:32:30;97146.69;;;20.35;59.51
10476;BME280;26166;48.264;11.436;2022-10-18T04:35:31;97142.38;;;20.34;59.50
10476;BME280;26166;48.264;11.436;2022-10-18T04:38:31;97131.72;;;20.34;59.48
10476;BME280;26166;48.264;11.436;2022-10-18T04:41:31;97130.06;;;20.33;59.58
10476;BME280;26166;48.264;11.436;2022-10-18T04:44:31;97126.38;;;20.34;59.48
10476;BME280;26166;48.264;11.436;2022-10-18T04:47:32;97125.56;;;20.34;59.39
10476;BME280;26166;48.264;11.436;2022-10-18T04:50:32;97129.03;;;20.34;59.51
10476;BME280;26166;48.264;11.436;2022-10-18T04:53:32;97136.22;;;20.34;59.46
10476;BME280;26166;48.264;11.436;2022-10-18T04:56:32;97134.38;;;20.34;59.38
10476;BME280;26166;48.264;11.436;2022-10-18T04:59:32;97134.38;;;20.34;59.46
10476;BME280;26166;48.264;11.436;2022-10-18T05:02:33;97134.38;;;20.34;59.29
10476;BME280;26166;48.264;11.436;2022-10-18T05:05:33;97127.19;;;20.35;59.50
10476;BME280;26166;48.264;11.436;2022-10-18T05:08:34;97127.41;;;20.33;59.51
10476;BME280;26166;48.264;11.436;2022-10-18T05:11:34;97123.09;;;20.32;59.54
10476;BME280;26166;48.264;11.436;2022-10-18T05:14:35;97119.41;;;20.33;59.53
10476;BME280;26166;48.264;11.436;2022-10-18T05:17:35;97119.41;;;20.33;59.44
10476;BME280;26166;48.264;11.436;2022-10-18T05:20:35;97125.34;;;20.35;59.57
10476;BME280;26166;48.264;11.436;2022-10-18T05:23:35;97121.03;;;20.34;59.50
10476;BME280;26166;48.264;11.436;2022-10-18T05:26:35;97125.56;;;20.34;59.62
10476;BME280;26166;48.264;11.436;2022-10-18T05:29:36;97129.03;;;20.34;59.69
10476;BME280;26166;48.264;11.436;2022-10-18T05:32:36;97126.38;;;20.34;59.45
10476;BME280;26166;48.264;11.436;2022-10-18T05:35:43;97128.00;;;20.35;59.23
10476;BME280;26166;48.264;11.436;2022-10-18T05:38:46;97132.53;;;20.35;58.99
10476;BME280;26166;48.264;11.436;2022-10-18T05:41:47;97139.72;;;20.34;59.00
10476;BME280;26166;48.264;11.436;2022-10-18T05:44:50;97138.69;;;20.35;58.98
10476;BME280;26166;48.264;11.436;2022-10-18T05:48:20;97144.81;;;20.36;59.33
10476;BME280;26166;48.264;11.436;2022-10-18T05:51:21;97154.69;;;20.35;59.26
10476;BME280;26166;48.264;11.436;2022-10-18T05:54:32;97138.69;;;20.35;59.37
10476;BME280;26166;48.264;11.436;2022-10-18T05:57:32;97135.19;;;20.35;59.12
10476;BME280;26166;48.264;11.436;2022-10-18T06:00:39;97140.53;;;20.35;59.29
10476;BME280;26166;48.264;11.436;2022-10-18T06:03:44;97134.38;;;20.34;59.41
10476;BME280;26166;48.264;11.436;2022-10-18T06:07:09;97130.88;;;20.34;59.30
10476;BME280;26166;48.264;11.436;2022-10-18T06:10:38;97129.84;;;20.35;59.31
10476;BME280;26166;48.264;11.436;2022-10-18T06:13:44;97131.72;;;20.34;59.33
10476;BME280;26166;48.264;11.436;2022-10-18T06:16:53;97128.22;;;20.34;59.27
10476;BME280;26166;48.264;11.436;2022-10-18T06:20:06;97135.41;;;20.33;59.22
10476;BME280;26166;48.264;11.436;2022-10-18T06:23:14;97141.56;;;20.34;59.18
10476;BME280;26166;48.264;11.436;2022-10-18T06:26:24;97135.41;;;20.33;59.10
10476;BME280;26166;48.264;11.436;2022-10-18T06:29:31;97139.94;;;20.33;59.18
10476;BME280;26166;48.264;11.436;2022-10-18T06:32:49;97140.75;;;20.33;59.30
10476;BME280;26166;48.264;11.436;2022-10-18T06:36:47;97150.59;;;20.33;59.26
10476;BME280;26166;48.264;11.436;2022-10-18T06:43:53;97159.22;;;20.35;59.33
10476;BME280;26166;48.264;11.436;2022-10-18T06:47:24;97149.34;;;20.35;59.19
10476;BME280;26166;48.264;11.436;2022-10-18T06:54:07;97172.38;;;20.36;59.34
10476;BME280;26166;48.264;11.436;2022-10-18T06:57:10;97171.50;;;20.36;59.39
10476;BME280;26166;48.264;11.436;2022-10-18T07:00:49;97174.19;;;20.36;59.20
10476;BME280;26166;48.264;11.436;2022-10-18T07:07:14;97176.03;;;20.35;59.06
10476;BME280;26166;48.264;11.436;2022-10-18T07:10:23;97171.50;;;20.36;59.25
10476;BME280;26166;48.264;11.436;2022-10-18T07:13:43;97176.03;;;20.35;59.23
10476;BME280;26166;48.264;11.436;2022-10-18T07:17:26;97177.69;;;20.36;59.14
10476;BME280;26166;48.264;11.436;2022-10-18T07:20:43;97170.69;;;20.35;59.26
10476;BME280;26166;48.264;11.436;2022-10-18T07:23:50;97169.69;;;20.36;59.35
10476;BME280;26166;48.264;11.436;2022-10-18T07:27:12;97183.03;;;20.36;59.33
10476;BME280;26166;48.264;11.436;2022-10-18T07:30:31;97183.03;;;20.36;59.32
10476;BME280;26166;48.264;11.436;2022-10-18T07:33:56;97176.84;;;20.36;59.15
10476;BME280;26166;48.264;11.436;2022-10-18T07:37:27;97175.03;;;20.36;59.30
10476;BME280;26166;48.264;11.436;2022-10-18T07:44:35;97184.66;;;20.37;59.14
10476;BME280;26166;48.264;11.436;2022-10-18T07:47:37;97177.69;;;20.36;59.38
10476;BME280;26166;48.264;11.436;2022-10-18T07:50:38;97175.03;;;20.36;59.08
10476;BME280;26166;48.264;11.436;2022-10-18T07:53:43;97167.03;;;20.36;59.32
10476;BME280;26166;48.264;11.436;2022-10-18T07:56:44;97175.22;;;20.35;59.30
10476;BME280;26166;48.264;11.436;2022-10-18T07:59:47;97174.41;;;20.34;59.27
10476;BME280;26166;48.264;11.436;2022-10-18T08:02:56;97182.41;;;20.34;59.27
10476;BME280;26166;48.264;11.436;2022-10-18T08:06:00;97173.56;;;20.34;59.31
10476;BME280;26166;48.264;11.436;2022-10-18T08:09:01;97181.59;;;20.34;59.32
10476;BME280;26166;48.264;11.436;2022-10-18T08:12:01;97187.75;;;20.34;59.18
10476;BME280;26166;48.264;11.436;2022-10-18T08:15:07;97191.22;;;20.35;59.12
10476;BME280;26166;48.264;11.436;2022-10-18T08:18:07;97195.75;;;20.34;59.31
10476;BME280;26166;48.264;11.436;2022-10-18T08:21:09;97203.53;;;20.36;59.13
10476;BME280;26166;48.264;11.436;2022-10-18T08:24:09;97192.84;;;20.36;59.17
10476;BME280;26166;48.264;11.436;2022-10-18T08:27:10;97194.53;;;20.37;59.18
10476;BME280;26166;48.264;11.436;2022-10-18T08:30:10;97181.19;;;20.37;59.06
10476;BME280;26166;48.264;11.436;2022-10-18T08:33:10;97172.38;;;20.36;59.29
10476;BME280;26166;48.264;11.436;2022-10-18T08:36:11;97167.84;;;20.37;59.29
10476;BME280;26166;48.264;11.436;2022-10-18T08:39:12;97173.19;;;20.37;59.22
10476;BME280;26166;48.264;11.436;2022-10-18T08:45:12;97174.00;;;20.37;59.17
10476;BME280;26166;48.264;11.436;2022-10-18T08:48:15;97168.66;;;20.37;59.06
10476;BME280;26166;48.264;11.436;2022-10-18T08:54:25;97183.84;;;20.37;59.17
10476;BME280;26166;48.264;11.436;2022-10-18T08:57:29;97192.66;;;20.37;59.22
10476;BME280;26166;48.264;11.436;2022-10-18T09:00:30;97188.97;;;20.38;59.17
10476;BME280;26166;48.264;11.436;2022-10-18T09:06:53;97165.16;;;20.37;59.21
10476;BME280;26166;48.264;11.436;2022-10-18T09:10:00;97175.84;;;20.37;59.14
10476;BME280;26166;48.264;11.436;2022-10-18T09:13:05;97168.66;;;20.37;59.23
10476;BME280;26166;48.264;11.436;2022-10-18T09:16:14;97172.38;;;20.36;59.09
10476;BME280;26166;48.264;11.436;2022-10-18T09:22:20;97179.34;;;20.37;59.22
10476;BME280;26166;48.264;11.436;2022-10-18T09:37:25;97167.03;;;20.36;59.24
10476;BME280;26166;48.264;11.436;2022-10-18T09:40:28;97172.38;;;20.36;59.12
10476;BME280;26166;48.264;11.436;2022-10-18T09:43:50;97172.38;;;20.36;59.25
10476;BME280;26166;48.264;11.436;2022-10-18T09:46:54;97168.03;;;20.35;59.05
10476;BME280;26166;48.264;11.436;2022-10-18T09:49:56;97171.50;;;20.36;59.23
10476;BME280;26166;48.264;11.436;2022-10-18T09:56:22;97168.03;;;20.35;59.20
10476;BME280;26166;48.264;11.436;2022-10-18T09:59:33;97167.03;;;20.36;59.17
10476;BME280;26166;48.264;11.436;2022-10-18T10:02:34;97164.34;;;20.36;59.26
10476;BME280;26166;48.264;11.436;2022-10-18T10:05:34;97165.34;;;20.35;59.16
10476;BME280;26166;48.264;11.436;2022-10-18T10:08:34;97163.31;;;20.37;59.16
10476;BME280;26166;48.264;11.436;2022-10-18T10:11:36;97162.88;;;20.40;59.14
10476;BME280;26166;48.264;11.436;2022-10-18T10:14:41;97155.50;;;20.42;59.18
10476;BME280;26166;48.264;11.436;2022-10-18T10:17:42;97149.34;;;20.42;59.07
10476;BME280;26166;48.264;11.436;2022-10-18T10:20:43;97148.09;;;20.45;59.04
10476;BME280;26166;48.264;11.436;2022-10-18T10:23:44;97151.41;;;20.47;58.94
10476;BME280;26166;48.264;11.436;2022-10-18T10:26:45;97147.72;;;20.48;58.94
10476;BME280;26166;48.264;11.436;2022-10-18T10:32:48;97145.44;;;20.45;59.19
10476;BME280;26166;48.264;11.436;2022-10-18T10:35:48;97143.00;;;20.43;59.04
10476;BME280;26166;48.264;11.436;2022-10-18T10:39:08;97146.69;;;20.42;59.27
10476;BME280;26166;48.264;11.436;2022-10-18T10:42:10;97137.88;;;20.41;59.15
10476;BME280;26166;48.264;11.436;2022-10-18T10:45:11;97145.06;;;20.41;59.11
10476;BME280;26166;48.264;11.436;2022-10-18T10:48:15;97150.56;;;20.39;59.10
10476;BME280;26166;48.264;11.436;2022-10-18T10:51:28;97145.25;;;20.39;59.21
10476;BME280;26166;48.264;11.436;2022-10-18T10:54:29;97137.47;;;20.38;59.18
10476;BME280;26166;48.264;11.436;2022-10-18T10:57:35;97132.13;;;20.38;59.22
10476;BME280;26166;48.264;11.436;2022-10-18T11:00:42;97128.63;;;20.37;59.46
10476;BME280;26166;48.264;11.436;2022-10-18T11:03:46;97122.25;;;20.38;59.46
10476;BME280;26166;48.264;11.436;2022-10-18T11:06:49;97119.59;;;20.38;59.43
10476;BME280;26166;48.264;11.436;2022-10-18T11:16:16;97120.63;;;20.37;59.40
10476;BME280;26166;48.264;11.436;2022-10-18T11:19:31;97120.63;;;20.37;59.37
10476;BME280;26166;48.264;11.436;2022-10-18T11:33:05;97094.75;;;20.38;59.21
10476;BME280;26166;48.264;11.436;2022-10-18T11:43:13;97080.59;;;20.37;59.40
10476;BME280;26166;48.264;11.436;2022-10-18T11:56:19;97083.88;;;20.39;59.40
10476;BME280;26166;48.264;11.436;2022-10-18T11:59:28;97068.91;;;20.38;59.22
10476;BME280;26166;48.264;11.436;2022-10-18T12:05:54;97058.22;;;20.38;59.32
10476;BME280;26166;48.264;11.436;2022-10-18T12:08:57;97061.72;;;20.39;59.40
10476;BME280;26166;48.264;11.436;2022-10-18T12:12:18;97061.72;;;20.39;59.11
10476;BME280;26166;48.264;11.436;2022-10-18T12:15:21;97058.22;;;20.38;59.32
10476;BME280;26166;48.264;11.436;2022-10-18T12:18:22;97052.88;;;20.38;59.26
10476;BME280;26166;48.264;11.436;2022-10-18T12:21:25;97053.09;;;20.37;59.28
10476;BME280;26166;48.264;11.436;2022-10-18T12:24:27;97053.94;;;20.37;59.37
10476;BME280;26166;48.264;11.436;2022-10-18T12:27:38;97045.09;;;20.37;59.25
10476;BME280;26166;48.264;11.436;2022-10-18T12:30:41;97044.28;;;20.36;59.33
10476;BME280;26166;48.264;11.436;2022-10-18T12:33:45;97045.09;;;20.37;59.13
10476;BME280;26166;48.264;11.436;2022-10-18T12:40:12;97030.94;;;20.36;59.46
10476;BME280;26166;48.264;11.436;2022-10-18T12:43:18;97035.25;;;20.37;59.50
10476;BME280;26166;48.264;11.436;2022-10-18T12:46:20;97036.06;;;20.38;59.32
10476;BME280;26166;48.264;11.436;2022-10-18T12:49:42;97035.84;;;20.39;59.19
10476;BME280;26166;48.264;11.436;2022-10-18T12:52:41;97034.00;;;20.40;59.35
10476;BME280;26166;48.264;11.436;2022-10-18T12:55:42;97040.16;;;20.40;59.22
10476;BME280;26166;48.264;11.436;2022-10-18T12:58:43;97040.78;;;20.42;59.19
10476;BME280;26166;48.264;11.436;2022-10-18T13:04:50;97032.75;;;20.42;59.31
10476;BME280;26166;48.264;11.436;2022-10-18T13:07:50;97031.13;;;20.41;59.26
10476;BME280;26166;48.264;11.436;2022-10-18T13:14:22;97031.94;;;20.42;59.31
10476;BME280;26166;48.264;11.436;2022-10-18T13:23:38;97027.44;;;20.42;59.08
10476;BME280;26166;48.264;11.436;2022-10-18T13:30:31;97022.09;;;20.42;59.33
10476;BME280;26166;48.264;11.436;2022-10-18T13:39:17;97023.72;;;20.44;59.07
10476;BME280;26166;48.264;11.436;2022-10-18T13:42:18;97020.03;;;20.45;59.12
10476;BME280;26166;48.264;11.436;2022-10-18T14:04:35;97032.75;;;20.42;59.24
10476;BME280;26166;48.264;11.436;2022-10-18T14:07:36;97033.59;;;20.43;59.20
10476;BME280;26166;48.264;11.436;2022-10-18T14:11:00;97036.25;;;20.43;59.06
10476;BME280;26166;48.264;11.436;2022-10-18T14:14:07;97031.94;;;20.42;59.32
10476;BME280;26166;48.264;11.436;2022-10-18T14:20:17;97041.81;;;20.41;59.26
10476;BME280;26166;48.264;11.436;2022-10-18T14:23:20;97025.81;;;20.41;59.34
10476;BME280;26166;48.264;11.436;2022-10-18T14:26:20;97033.81;;;20.41;59.23
10476;BME280;26166;48.264;11.436;2022-10-18T14:29:21;97033.81;;;20.41;59.29
10476;BME280;26166;48.264;11.436;2022-10-18T14:35:23;97025.81;;;20.41;59.20
10476;BME280;26166;48.264;11.436;2022-10-18T14:38:23;97029.28;;;20.42;59.23
10476;BME280;26166;48.264;11.436;2022-10-18T14:44:28;97031.13;;;20.41;59.22
10476;BME280;26166;48.264;11.436;2022-10-18T14:47:29;97028.47;;;20.41;59.18
10476;BME280;26166;48.264;11.436;2022-10-18T14:50:30;97024.97;;;20.41;59.14
10476;BME280;26166;48.264;11.436;2022-10-18T14:53:31;97029.47;;;20.40;59.35
10476;BME280;26166;48.264;11.436;2022-10-18T14:56:38;97034.81;;;20.40;59.25
10476;BME280;26166;48.264;11.436;2022-10-18T14:59:48;97034.81;;;20.40;59.20
10476;BME280;26166;48.264;11.436;2022-10-18T15:02:50;97033.19;;;20.39;59.14
10476;BME280;26166;48.264;11.436;2022-10-18T15:05:52;97039.31;;;20.40;59.38
10476;BME280;26166;48.264;11.436;2022-10-18T15:08:54;97037.69;;;20.39;59.42
10476;BME280;26166;48.264;11.436;2022-10-18T15:11:55;97049.19;;;20.39;59.18
10476;BME280;26166;48.264;11.436;2022-10-18T15:14:56;97051.84;;;20.39;59.40
10476;BME280;26166;48.264;11.436;2022-10-18T15:17:58;97054.53;;;20.39;59.34
10476;BME280;26166;48.264;11.436;2022-10-18T15:21:15;97049.19;;;20.39;59.34
10476;BME280;26166;48.264;11.436;2022-10-18T15:27:21;97050.00;;;20.40;59.22
10476;BME280;26166;48.264;11.436;2022-10-18T15:30:24;97052.47;;;20.41;59.68
10476;BME280;26166;48.264;11.436;2022-10-18T15:33:26;97063.56;;;20.52;60.29
10476;BME280;26166;48.264;11.436;2022-10-18T15:36:32;97067.66;;;20.54;59.66
10476;BME280;26166;48.264;11.436;2022-10-18T15:39:32;97058.22;;;20.52;59.77
10476;BME280;26166;48.264;11.436;2022-10-18T15:42:36;97061.94;;;20.51;59.76
10476;BME280;26166;48.264;11.436;2022-10-18T15:45:38;97058.63;;;20.49;59.66
10476;BME280;26166;48.264;11.436;2022-10-18T15:48:44;97061.50;;;20.47;59.69
10476;BME280;26166;48.264;11.436;2022-10-18T15:51:46;97065.19;;;20.46;59.62
10476;BME280;26166;48.264;11.436;2022-10-18T15:54:48;97056.56;;;20.44;59.50
10476;BME280;26166;48.264;11.436;2022-10-18T15:57:48;97062.72;;;20.45;59.67
10476;BME280;26166;48.264;11.436;2022-10-18T16:00:49;97052.03;;;20.45;59.80
10476;BME280;26166;48.264;11.436;2022-10-18T16:03:50;97053.91;;;20.44;59.81
10476;BME280;26166;48.264;11.436;2022-10-18T16:06:50;97050.41;;;20.44;60.05
10476;BME280;26166;48.264;11.436;2022-10-18T16:09:51;97058.19;;;20.45;60.09
10476;BME280;26166;48.264;11.436;2022-10-18T16:12:51;97054.53;;;20.46;60.68
10476;BME280;26166;48.264;11.436;2022-10-18T16:15:51;97070.34;;;20.48;60.58
10476;BME280;26166;48.264;11.436;2022-10-18T16:18:54;97065.00;;;20.48;60.46
10476;BME280;26166;48.264;11.436;2022-10-18T16:21:56;97063.97;;;20.49;60.73
10476;BME280;26166;48.264;11.436;2022-10-18T16:24:56;97071.97;;;20.49;60.68
10476;BME280;26166;48.264;11.436;2022-10-18T16:27:56;97068.50;;;20.48;60.50
10476;BME280;26166;48.264;11.436;2022-10-18T16:30:59;97075.47;;;20.49;60.32
10476;BME280;26166;48.264;11.436;2022-10-18T16:33:59;97078.34;;;20.48;60.21
10476;BME280;26166;48.264;11.436;2022-10-18T16:37:00;97086.34;;;20.48;60.22
10476;BME280;26166;48.264;11.436;2022-10-18T16:40:19;97090.66;;;20.49;59.95
10476;BME280;26166;48.264;11.436;2022-10-18T16:43:20;97094.34;;;20.48;59.95
10476;BME280;26166;48.264;11.436;2022-10-18T16:46:22;97099.69;;;20.48;60.14
10476;BME280;26166;48.264;11.436;2022-10-18T16:49:23;97102.38;;;20.48;59.94
10476;BME280;26166;48.264;11.436;2022-10-18T16:52:26;97105.03;;;20.48;60.01
10476;BME280;26166;48.264;11.436;2022-10-18T16:55:26;97111.38;;;20.47;60.14
10476;BME280;26166;48.264;11.436;2022-10-18T16:58:27;97108.72;;;20.47;60.00
10476;BME280;26166;48.264;11.436;2022-10-18T17:01:28;97114.88;;;20.47;59.87
10476;BME280;26166;48.264;11.436;2022-10-18T17:04:28;97117.75;;;20.46;59.96
10476;BME280;26166;48.264;11.436;2022-10-18T17:07:29;97119.38;;;20.47;60.04
10476;BME280;26166;48.264;11.436;2022-10-18T17:10:29;97118.75;;;20.45;59.90
10476;BME280;26166;48.264;11.436;2022-10-18T17:13:29;97123.91;;;20.46;59.99
10476;BME280;26166;48.264;11.436;2022-10-18T17:16:30;97116.09;;;20.45;59.79
10476;BME280;26166;48.264;11.436;2022-10-18T17:19:30;97125.94;;;20.44;59.74
10476;BME280;26166;48.264;11.436;2022-10-18T17:22:31;97129.44;;;20.45;59.91
10476;BME280;26166;48.264;11.436;2022-10-18T17:25:31;97132.09;;;20.45;59.68
10476;BME280;26166;48.264;11.436;2022-10-18T17:28:31;97129.44;;;20.45;59.70
10476;BME280;26166;48.264;11.436;2022-10-18T17:31:31;97133.94;;;20.44;59.81
10476;BME280;26166;48.264;11.436;2022-10-18T17:34:32;97132.91;;;20.45;59.63
10476;BME280;26166;48.264;11.436;2022-10-18T17:37:34;97140.09;;;20.45;59.88
10476;BME280;26166;48.264;11.436;2022-10-18T17:40:40;97132.09;;;20.45;59.81
10476;BME280;26166;48.264;11.436;2022-10-18T17:43:43;97142.78;;;20.45;59.58
10476;BME280;26166;48.264;11.436;2022-10-18T17:46:43;97148.09;;;20.45;59.69
10476;BME280;26166;48.264;11.436;2022-10-18T17:49:43;97155.28;;;20.44;59.84
10476;BME280;26166;48.264;11.436;2022-10-18T17:52:45;97152.63;;;20.44;59.64
10476;BME280;26166;48.264;11.436;2022-10-18T17:55:46;97153.44;;;20.45;59.56
10476;BME280;26166;48.264;11.436;2022-10-18T17:58:51;97162.47;;;20.44;59.69
10476;BME280;26166;48.264;11.436;2022-10-18T18:01:53;97155.28;;;20.44;59.86
10476;BME280;26166;48.264;11.436;2022-10-18T18:04:55;97162.47;;;20.44;59.64
10476;BME280;26166;48.264;11.436;2022-10-18T18:07:59;97159.81;;;20.44;59.82
10476;BME280;26166;48.264;11.436;2022-10-18T18:11:00;97159.81;;;20.44;59.67
10476;BME280;26166;48.264;11.436;2022-10-18T18:14:01;97161.66;;;20.43;59.55
10476;BME280;26166;48.264;11.436;2022-10-18T18:17:07;97161.66;;;20.43;59.76
10476;BME280;26166;48.264;11.436;2022-10-18T18:20:08;97162.47;;;20.44;59.81
10476;BME280;26166;48.264;11.436;2022-10-18T18:23:08;97161.66;;;20.43;59.77
10476;BME280;26166;48.264;11.436;2022-10-18T18:26:10;97170.50;;;20.44;59.88
10476;BME280;26166;48.264;11.436;2022-10-18T18:29:23;97172.13;;;20.45;59.90
10476;BME280;26166;48.264;11.436;2022-10-18T18:32:25;97170.28;;;20.45;60.32
10476;BME280;26166;48.264;11.436;2022-10-18T18:35:26;97176.47;;;20.46;60.16
10476;BME280;26166;48.264;11.436;2022-10-18T18:38:37;97171.13;;;20.46;60.51
10476;BME280;26166;48.264;11.436;2022-10-18T18:41:48;97175.41;;;20.47;60.47
10476;BME280;26166;48.264;11.436;2022-10-18T18:45:26;97178.09;;;20.47;60.38
10476;BME280;26166;48.264;11.436;2022-10-18T18:49:05;97176.47;;;20.46;60.47
10476;BME280;26166;48.264;11.436;2022-10-18T18:52:48;97179.94;;;20.46;60.40
10476;BME280;26166;48.264;11.436;2022-10-18T18:56:33;97185.09;;;20.48;60.38
10476;BME280;26166;48.264;11.436;2022-10-18T19:00:04;97184.25;;;20.47;60.64